Atherton, California
Current Conditions -  °F | °C
As of 9:15 PM on Sunday 19 Oct 2014 (Local Time) from KSQL Reporting Station
Clear Clear  
Wind Chill: 64°   Ceiling: Unl
Heat Index: 64°   Visibility: 10mi
Dew Point: 57°   Wind: 5mph
Humidity: 77%   Direction: 310°NW
Pressure: 29.91"   Gusts: NA
Location:  37.46°N, 122.19°W
Report Text: KSQL 200415Z AUTO 31004KT 10SM CLR 18/14 A2991 RMK AO2
Loading
Personal Weather Stations






























Interactive Weather Map
Tropical Storm Tracking
New forecast layout! Learn more

10-Day Weather Forecast

Advertisements
Track Severe Weather on mobile